Time,TemperatureF,DewpointF,PressureIn,WindDirection,WindDirectionDegrees,WindSpeedMPH,WindSpeedGustMPH,Humidity,HourlyPrecipIn,Conditions,Clouds,dailyrainin,SoftwareType,DateUTC
2013-04-10 20:42:00,74.5,55.2,29.26,SW,225,9.8,9.8,51,0.00,,---,0.00,VWS V14.01,2013-04-11 01:42:00,
2013-04-10 20:47:00,74.7,55.3,29.79,West,270,3.1,3.1,51,0.00,,---,0.00,VWS V14.01,2013-04-11 01:47:00,
2013-04-10 20:52:00,74.5,55.2,29.79,West,270,6.9,6.9,51,0.00,,---,0.00,VWS V14.01,2013-04-11 01:52:00,
2013-04-10 20:57:00,74.5,55.2,29.79,WNW,292,3.8,6.5,51,0.00,,---,0.00,VWS V14.01,2013-04-11 01:57:00,
2013-04-10 21:02:00,74.5,54.6,29.79,West,270,3.8,6.3,50,0.00,,---,0.00,VWS V14.01,2013-04-11 02:02:00,
2013-04-10 21:07:00,74.5,54.6,29.79,WSW,248,2.5,6.0,50,0.00,,---,0.00,VWS V14.01,2013-04-11 02:07:00,
2013-04-10 21:12:00,74.5,55.2,29.79,West,270,4.9,4.9,51,0.00,,---,0.00,VWS V14.01,2013-04-11 02:12:00,
2013-04-10 21:17:00,74.5,54.6,29.79,West,270,5.6,6.3,50,0.00,,---,0.00,VWS V14.01,2013-04-11 02:17:00,
2013-04-10 21:22:00,74.8,55.0,29.79,WSW,248,3.8,7.4,50,0.00,,---,0.00,VWS V14.01,2013-04-11 02:22:00,
2013-04-10 21:27:00,75.0,54.6,29.79,SW,225,9.8,12.3,49,0.00,,---,0.00,VWS V14.01,2013-04-11 02:27:00,
2013-04-10 21:32:00,75.2,54.8,29.79,West,270,2.7,3.6,49,0.00,,---,0.00,VWS V14.01,2013-04-11 02:32:00,
2013-04-10 21:37:00,75.0,54.6,29.79,WNW,292,4.9,7.6,49,0.00,,---,0.00,VWS V14.01,2013-04-11 02:37:00,
2013-04-10 21:42:00,75.0,55.1,29.79,WNW,292,5.4,5.6,50,0.00,,---,0.00,VWS V14.01,2013-04-11 02:42:00,
2013-04-10 21:47:00,74.8,55.0,29.79,West,270,4.0,5.4,50,0.00,,---,0.00,VWS V14.01,2013-04-11 02:47:00,
2013-04-10 21:52:00,74.7,54.8,29.79,SSW,202,3.1,3.8,50,0.00,,---,0.00,VWS V14.01,2013-04-11 02:52:00,
2013-04-10 21:57:00,74.3,55.6,29.79,West,270,2.7,2.7,52,0.00,,---,0.00,VWS V14.01,2013-04-11 02:57:00,
2013-04-10 22:02:00,74.1,55.4,29.79,WSW,248,0.9,2.5,52,0.00,,---,0.00,VWS V14.01,2013-04-11 03:02:00,
2013-04-10 22:07:00,74.1,55.9,29.79,NW,315,4.9,4.9,53,0.00,,---,0.00,VWS V14.01,2013-04-11 03:07:00,
2013-04-10 22:12:00,73.9,55.8,29.79,WNW,292,2.7,4.0,53,0.00,,---,0.00,VWS V14.01,2013-04-11 03:12:00,
2013-04-10 22:17:00,73.9,55.8,29.79,West,270,4.9,10.1,53,0.00,,---,0.00,VWS V14.01,2013-04-11 03:17:00,
2013-04-10 22:22:00,73.8,55.6,29.79,WNW,292,3.1,5.6,53,0.00,,---,0.00,VWS V14.01,2013-04-11 03:22:00,
2013-04-10 22:27:00,73.8,55.6,29.79,WNW,292,8.5,8.5,53,0.00,,---,0.00,VWS V14.01,2013-04-11 03:27:00,
2013-04-10 22:32:00,73.6,55.9,29.82,WSW,248,3.8,4.7,54,0.00,,---,0.00,VWS V14.01,2013-04-11 03:32:00,
2013-04-10 22:37:00,73.2,56.6,29.82,West,270,3.4,5.4,56,0.00,,---,0.00,VWS V14.01,2013-04-11 03:37:00,
2013-04-10 22:42:00,72.9,56.8,29.82,West,270,4.3,5.4,57,0.00,,---,0.00,VWS V14.01,2013-04-11 03:42:00,
2013-04-10 22:47:00,72.5,58.3,29.82,WNW,292,5.6,5.8,61,0.00,,---,0.00,VWS V14.01,2013-04-11 03:47:00,
2013-04-10 22:52:00,72.1,58.9,29.82,WNW,292,4.0,12.3,63,0.00,,---,0.00,VWS V14.01,2013-04-11 03:52:00,
2013-04-10 22:57:00,71.8,59.8,29.82,NNW,338,5.8,8.7,66,0.00,,---,0.00,VWS V14.01,2013-04-11 03:57:00,
2013-04-10 23:00:00,71.6,59.7,29.85,NNE,22,10.3,15.2,66,0.00,,---,0.00,VWS V14.01,2013-04-11 04:00:00,
2013-04-10 23:05:00,69.8,58.8,29.85,North,0,7.8,10.1,68,0.00,,---,0.00,VWS V14.01,2013-04-11 04:05:00,
2013-04-10 23:10:00,69.1,58.1,29.85,North,0,7.4,7.4,68,0.00,,---,0.00,VWS V14.01,2013-04-11 04:10:00,
2013-04-10 23:15:00,68.0,58.3,29.85,ENE,68,4.9,6.5,71,0.00,,---,0.00,VWS V14.01,2013-04-11 04:15:00,
2013-04-10 23:20:00,67.3,59.1,29.85,NNE,22,2.9,7.6,75,0.04,,---,0.04,VWS V14.01,2013-04-11 04:20:00,
2013-04-10 23:25:00,66.6,59.5,29.85,NNE,22,5.8,5.8,78,0.04,,---,0.04,VWS V14.01,2013-04-11 04:25:00,
2013-04-10 23:30:00,66.4,59.0,29.82,NNE,22,4.3,4.3,77,0.08,,---,0.08,VWS V14.01,2013-04-11 04:30:00,
2013-04-10 23:35:00,66.0,60.0,29.82,North,0,4.9,4.9,81,0.08,,---,0.08,VWS V14.01,2013-04-11 04:35:00,
2013-04-10 23:40:00,66.0,60.0,29.82,North,0,2.9,3.8,81,0.08,,---,0.08,VWS V14.01,2013-04-11 04:40:00,
2013-04-10 23:45:00,65.8,60.2,29.82,NE,45,2.7,3.8,82,0.08,,---,0.08,VWS V14.01,2013-04-11 04:45:00,
2013-04-10 23:50:00,65.7,60.0,29.82,North,0,0.0,1.3,82,0.08,,---,0.08,VWS V14.01,2013-04-11 04:50:00,
2013-04-10 23:55:00,65.7,60.4,29.82,ENE,68,2.9,2.9,83,0.08,,---,0.08,VWS V14.01,2013-04-11 04:55:00,